sensor_id;sensor_type;location;lat;lon;timestamp;pressure;altitude;pressure_sealevel;temperature;humidity
36932;BME280;22847;42.654;23.370;2023-05-07T00:00:08;94837.78;;;14.14;60.91
36932;BME280;22847;42.654;23.370;2023-05-07T00:02:35;94899.00;;;14.47;61.06
36932;BME280;22847;42.654;23.370;2023-05-07T00:05:01;94896.06;;;14.50;61.34
36932;BME280;22847;42.654;23.370;2023-05-07T00:07:27;94907.38;;;14.43;61.47
36932;BME280;22847;42.654;23.370;2023-05-07T00:09:53;94909.28;;;14.32;62.11
36932;BME280;22847;42.654;23.370;2023-05-07T00:12:18;94922.59;;;14.31;62.54
36932;BME280;22847;42.654;23.370;2023-05-07T00:14:44;94750.47;;;13.31;62.36
36932;BME280;22847;42.654;23.370;2023-05-07T00:17:09;94858.91;;;13.97;62.24
36932;BME280;22847;42.654;23.370;2023-05-07T00:19:34;94913.41;;;14.27;62.46
36932;BME280;22847;42.654;23.370;2023-05-07T00:22:00;94914.88;;;14.29;62.93
36932;BME280;22847;42.654;23.370;2023-05-07T00:24:25;94904.66;;;14.10;63.17
36932;BME280;22847;42.654;23.370;2023-05-07T00:26:51;94910.25;;;14.23;63.10
36932;BME280;22847;42.654;23.370;2023-05-07T00:29:17;94862.00;;;13.92;62.98
36932;BME280;22847;42.654;23.370;2023-05-07T00:31:43;94914.00;;;14.13;63.15
36932;BME280;22847;42.654;23.370;2023-05-07T00:34:08;94905.22;;;13.80;65.01
36932;BME280;22847;42.654;23.370;2023-05-07T00:36:34;94757.69;;;13.04;64.35
36932;BME280;22847;42.654;23.370;2023-05-07T00:39:00;94740.66;;;12.91;64.50
36932;BME280;22847;42.654;23.370;2023-05-07T00:41:28;94871.91;;;13.64;64.52
36932;BME280;22847;42.654;23.370;2023-05-07T00:43:53;94944.56;;;13.54;65.38
36932;BME280;22847;42.654;23.370;2023-05-07T00:46:20;94862.31;;;13.39;64.42
36932;BME280;22847;42.654;23.370;2023-05-07T00:48:47;94910.94;;;13.75;64.85
36932;BME280;22847;42.654;23.370;2023-05-07T00:51:12;94916.66;;;13.79;64.89
36932;BME280;22847;42.654;23.370;2023-05-07T00:53:38;94892.00;;;13.56;65.30
36932;BME280;22847;42.654;23.370;2023-05-07T00:56:04;94752.88;;;12.57;65.85
36932;BME280;22847;42.654;23.370;2023-05-07T00:58:32;94916.69;;;13.45;66.50
36932;BME280;22847;42.654;23.370;2023-05-07T01:00:57;94806.09;;;12.04;67.64
36932;BME280;22847;42.654;23.370;2023-05-07T01:03:23;94917.53;;;12.59;67.56
36932;BME280;22847;42.654;23.370;2023-05-07T01:05:50;94906.00;;;12.87;66.68
36932;BME280;22847;42.654;23.370;2023-05-07T01:08:16;94927.81;;;12.25;68.96
36932;BME280;22847;42.654;23.370;2023-05-07T01:10:43;94874.56;;;12.08;69.55
36932;BME280;22847;42.654;23.370;2023-05-07T01:13:10;94907.97;;;12.32;68.74
36932;BME280;22847;42.654;23.370;2023-05-07T01:15:36;94903.69;;;12.31;68.89
36932;BME280;22847;42.654;23.370;2023-05-07T01:18:02;94929.66;;;12.42;68.96
36932;BME280;22847;42.654;23.370;2023-05-07T01:20:28;94738.81;;;11.08;69.69
36932;BME280;22847;42.654;23.370;2023-05-07T01:22:54;94923.13;;;12.11;70.46
36932;BME280;22847;42.654;23.370;2023-05-07T01:25:20;94915.81;;;12.14;70.60
36932;BME280;22847;42.654;23.370;2023-05-07T01:27:46;94925.94;;;12.17;70.51
36932;BME280;22847;42.654;23.370;2023-05-07T01:30:11;94934.28;;;12.03;71.04
36932;BME280;22847;42.654;23.370;2023-05-07T01:32:43;94736.50;;;11.05;70.97
36932;BME280;22847;42.654;23.370;2023-05-07T01:35:15;94863.06;;;12.19;70.14
36932;BME280;22847;42.654;23.370;2023-05-07T01:37:44;94761.47;;;11.53;70.02
36932;BME280;22847;42.654;23.370;2023-05-07T01:40:10;94909.75;;;12.49;70.13
36932;BME280;22847;42.654;23.370;2023-05-07T01:42:36;94926.19;;;12.59;70.25
36932;BME280;22847;42.654;23.370;2023-05-07T01:45:01;94692.53;;;11.28;70.42
36932;BME280;22847;42.654;23.370;2023-05-07T01:47:29;94724.75;;;11.19;72.02
36932;BME280;22847;42.654;23.370;2023-05-07T01:49:55;94930.22;;;12.53;71.58
36932;BME280;22847;42.654;23.370;2023-05-07T01:52:21;94838.41;;;12.39;71.59
36932;BME280;22847;42.654;23.370;2023-05-07T01:54:46;94885.38;;;12.48;72.58
36932;BME280;22847;42.654;23.370;2023-05-07T01:57:11;94732.91;;;11.34;74.05
36932;BME280;22847;42.654;23.370;2023-05-07T01:59:37;94834.84;;;12.04;73.78
36932;BME280;22847;42.654;23.370;2023-05-07T02:02:02;94882.75;;;12.66;72.33
36932;BME280;22847;42.654;23.370;2023-05-07T02:04:27;94889.56;;;12.59;72.81
36932;BME280;22847;42.654;23.370;2023-05-07T02:06:53;94813.78;;;11.88;74.11
36932;BME280;22847;42.654;23.370;2023-05-07T02:09:18;94893.97;;;12.59;72.87
36932;BME280;22847;42.654;23.370;2023-05-07T02:11:44;94888.00;;;12.13;74.49
36932;BME280;22847;42.654;23.370;2023-05-07T02:14:10;94847.84;;;11.69;75.39
36932;BME280;22847;42.654;23.370;2023-05-07T02:16:35;94879.69;;;11.55;77.46
36932;BME280;22847;42.654;23.370;2023-05-07T02:19:00;94794.06;;;10.67;78.66
36932;BME280;22847;42.654;23.370;2023-05-07T02:21:26;94676.56;;;10.32;77.80
36932;BME280;22847;42.654;23.370;2023-05-07T02:23:51;94876.50;;;11.61;77.38
36932;BME280;22847;42.654;23.370;2023-05-07T02:26:17;94703.03;;;10.37;78.22
36932;BME280;22847;42.654;23.370;2023-05-07T02:28:42;94841.72;;;11.33;77.80
36932;BME280;22847;42.654;23.370;2023-05-07T02:31:07;94898.66;;;11.20;79.28
36932;BME280;22847;42.654;23.370;2023-05-07T02:33:33;94883.97;;;11.46;78.65
36932;BME280;22847;42.654;23.370;2023-05-07T02:36:09;94855.03;;;11.57;77.15
36932;BME280;22847;42.654;23.370;2023-05-07T02:38:35;94856.16;;;11.55;76.46
36932;BME280;22847;42.654;23.370;2023-05-07T02:41:01;94867.63;;;11.44;78.30
36932;BME280;22847;42.654;23.370;2023-05-07T02:43:26;94882.47;;;11.16;80.02
36932;BME280;22847;42.654;23.370;2023-05-07T02:46:05;94884.38;;;11.14;79.92
36932;BME280;22847;42.654;23.370;2023-05-07T02:48:31;94882.47;;;11.16;80.11
36932;BME280;22847;42.654;23.370;2023-05-07T02:50:57;94867.53;;;10.99;80.79
36932;BME280;22847;42.654;23.370;2023-05-07T02:53:22;94885.16;;;10.78;81.52
36932;BME280;22847;42.654;23.370;2023-05-07T02:55:48;94842.97;;;10.92;80.67
36932;BME280;22847;42.654;23.370;2023-05-07T02:58:13;94839.06;;;10.69;81.64
36932;BME280;22847;42.654;23.370;2023-05-07T03:00:39;94702.72;;;9.93;81.25
36932;BME280;22847;42.654;23.370;2023-05-07T03:03:05;94693.41;;;9.81;81.29
36932;BME280;22847;42.654;23.370;2023-05-07T03:05:30;94891.19;;;10.88;82.68
36932;BME280;22847;42.654;23.370;2023-05-07T03:07:56;94889.75;;;11.03;82.02
36932;BME280;22847;42.654;23.370;2023-05-07T03:10:21;94903.88;;;11.20;81.66
36932;BME280;22847;42.654;23.370;2023-05-07T03:12:46;94913.09;;;11.14;81.90
36932;BME280;22847;42.654;23.370;2023-05-07T03:15:12;94878.41;;;11.32;80.95
36932;BME280;22847;42.654;23.370;2023-05-07T03:17:38;94898.00;;;11.45;80.76
36932;BME280;22847;42.654;23.370;2023-05-07T03:20:04;94925.88;;;11.45;80.77
36932;BME280;22847;42.654;23.370;2023-05-07T03:22:29;94907.78;;;11.71;80.22
36932;BME280;22847;42.654;23.370;2023-05-07T03:24:55;94902.31;;;11.91;78.61
36932;BME280;22847;42.654;23.370;2023-05-07T03:27:20;94750.47;;;10.87;79.43
36932;BME280;22847;42.654;23.370;2023-05-07T03:29:46;94831.03;;;11.54;78.90
36932;BME280;22847;42.654;23.370;2023-05-07T03:32:11;94937.69;;;12.13;78.40
36932;BME280;22847;42.654;23.370;2023-05-07T03:34:36;94899.28;;;12.14;77.87
36932;BME280;22847;42.654;23.370;2023-05-07T03:37:02;94906.44;;;11.94;79.48
36932;BME280;22847;42.654;23.370;2023-05-07T03:39:27;94916.25;;;12.10;78.62
36932;BME280;22847;42.654;23.370;2023-05-07T03:41:53;94719.88;;;10.79;79.23
36932;BME280;22847;42.654;23.370;2023-05-07T03:44:18;94875.75;;;11.41;80.97
36932;BME280;22847;42.654;23.370;2023-05-07T03:46:43;94748.09;;;10.93;79.69
36932;BME280;22847;42.654;23.370;2023-05-07T03:49:09;94922.31;;;11.83;80.54
36932;BME280;22847;42.654;23.370;2023-05-07T03:51:34;94748.50;;;10.98;79.86
36932;BME280;22847;42.654;23.370;2023-05-07T03:54:01;94920.72;;;12.17;78.71
36932;BME280;22847;42.654;23.370;2023-05-07T03:56:26;94759.34;;;11.66;77.19
36932;BME280;22847;42.654;23.370;2023-05-07T03:58:53;94935.69;;;12.78;75.98
36932;BME280;22847;42.654;23.370;2023-05-07T04:01:18;94825.63;;;12.36;74.50
36932;BME280;22847;42.654;23.370;2023-05-07T04:03:44;94934.00;;;13.12;73.14
36932;BME280;22847;42.654;23.370;2023-05-07T04:06:09;94898.22;;;13.03;72.73
36932;BME280;22847;42.654;23.370;2023-05-07T04:08:35;94934.09;;;13.28;71.83
36932;BME280;22847;42.654;23.370;2023-05-07T04:11:01;94923.22;;;13.41;70.47
36932;BME280;22847;42.654;23.370;2023-05-07T04:13:26;94957.84;;;14.37;68.37
36932;BME280;22847;42.654;23.370;2023-05-07T04:15:53;94949.78;;;15.84;63.71
36932;BME280;22847;42.654;23.370;2023-05-07T04:18:19;94856.81;;;16.61;58.48
36932;BME280;22847;42.654;23.370;2023-05-07T04:20:45;94945.53;;;18.02;55.54
36932;BME280;22847;42.654;23.370;2023-05-07T04:23:10;94890.44;;;18.28;53.44
36932;BME280;22847;42.654;23.370;2023-05-07T04:25:36;94797.75;;;18.02;51.82
36932;BME280;22847;42.654;23.370;2023-05-07T04:28:01;94948.13;;;19.03;51.49
36932;BME280;22847;42.654;23.370;2023-05-07T04:30:26;94953.69;;;19.08;51.60
36932;BME280;22847;42.654;23.370;2023-05-07T04:32:52;94941.06;;;19.10;51.40
36932;BME280;22847;42.654;23.370;2023-05-07T04:35:21;94837.00;;;18.48;51.23
36932;BME280;22847;42.654;23.370;2023-05-07T04:37:47;94952.34;;;19.19;50.83
36932;BME280;22847;42.654;23.370;2023-05-07T04:40:13;94961.66;;;19.15;50.79
36932;BME280;22847;42.654;23.370;2023-05-07T04:42:38;94802.19;;;18.16;50.54
36932;BME280;22847;42.654;23.370;2023-05-07T04:45:04;94885.03;;;18.73;50.92
36932;BME280;22847;42.654;23.370;2023-05-07T04:47:30;94867.22;;;18.60;50.91
36932;BME280;22847;42.654;23.370;2023-05-07T04:49:55;94959.66;;;19.17;51.13
36932;BME280;22847;42.654;23.370;2023-05-07T04:52:21;94963.13;;;19.17;51.35
36932;BME280;22847;42.654;23.370;2023-05-07T04:54:46;94966.63;;;19.25;51.48
36932;BME280;22847;42.654;23.370;2023-05-07T04:57:11;94794.41;;;18.29;50.98
36932;BME280;22847;42.654;23.370;2023-05-07T04:59:37;94953.41;;;19.25;51.35
36932;BME280;22847;42.654;23.370;2023-05-07T05:02:02;94917.94;;;19.12;51.33
36932;BME280;22847;42.654;23.370;2023-05-07T05:04:29;94935.97;;;19.30;51.49
36932;BME280;22847;42.654;23.370;2023-05-07T05:06:55;94963.84;;;19.54;51.76
36932;BME280;22847;42.654;23.370;2023-05-07T05:09:20;94940.47;;;19.36;51.50
36932;BME280;22847;42.654;23.370;2023-05-07T05:11:45;94950.00;;;19.52;50.99
36932;BME280;22847;42.654;23.370;2023-05-07T05:14:11;94933.34;;;19.37;51.26
36932;BME280;22847;42.654;23.370;2023-05-07T05:16:36;94867.84;;;19.04;51.62
36932;BME280;22847;42.654;23.370;2023-05-07T05:19:02;94808.47;;;18.79;51.52
36932;BME280;22847;42.654;23.370;2023-05-07T05:21:27;94952.63;;;19.80;51.75
36932;BME280;22847;42.654;23.370;2023-05-07T05:23:54;94962.13;;;20.02;51.45
36932;BME280;22847;42.654;23.370;2023-05-07T05:26:20;94959.56;;;20.15;51.14
36932;BME280;22847;42.654;23.370;2023-05-07T05:28:49;94951.16;;;20.05;51.27
36932;BME280;22847;42.654;23.370;2023-05-07T05:31:15;94897.00;;;20.08;50.13
36932;BME280;22847;42.654;23.370;2023-05-07T05:33:40;94842.47;;;20.20;49.54
36932;BME280;22847;42.654;23.370;2023-05-07T05:36:07;94864.38;;;20.55;48.71
36932;BME280;22847;42.654;23.370;2023-05-07T05:38:34;94961.91;;;20.99;48.49
36932;BME280;22847;42.654;23.370;2023-05-07T05:40:59;94969.84;;;20.85;49.23
36932;BME280;22847;42.654;23.370;2023-05-07T05:43:25;94957.38;;;20.66;49.77
36932;BME280;22847;42.654;23.370;2023-05-07T05:45:50;94958.81;;;20.75;49.44
36932;BME280;22847;42.654;23.370;2023-05-07T05:48:15;94949.19;;;20.68;49.62
36932;BME280;22847;42.654;23.370;2023-05-07T05:50:42;94952.69;;;20.75;49.36
36932;BME280;22847;42.654;23.370;2023-05-07T05:53:07;94981.44;;;20.78;49.45
36932;BME280;22847;42.654;23.370;2023-05-07T05:55:33;94822.75;;;19.81;49.49
36932;BME280;22847;42.654;23.370;2023-05-07T05:58:00;94930.59;;;20.55;50.10
36932;BME280;22847;42.654;23.370;2023-05-07T06:00:25;94938.00;;;20.72;49.99
36932;BME280;22847;42.654;23.370;2023-05-07T06:02:51;94952.56;;;21.09;49.62
36932;BME280;22847;42.654;23.370;2023-05-07T06:05:17;94961.78;;;21.20;48.93
36932;BME280;22847;42.654;23.370;2023-05-07T06:07:42;94846.00;;;20.33;49.16
36932;BME280;22847;42.654;23.370;2023-05-07T06:10:08;94965.59;;;21.04;50.49
36932;BME280;22847;42.654;23.370;2023-05-07T06:12:33;94924.59;;;21.00;49.92
36932;BME280;22847;42.654;23.370;2023-05-07T06:14:59;94966.06;;;21.21;49.10
36932;BME280;22847;42.654;23.370;2023-05-07T06:17:25;94953.91;;;20.72;49.73
36932;BME280;22847;42.654;23.370;2023-05-07T06:19:51;94965.88;;;20.55;50.73
36932;BME280;22847;42.654;23.370;2023-05-07T06:22:16;94926.00;;;20.29;51.12
36932;BME280;22847;42.654;23.370;2023-05-07T06:24:41;94948.09;;;20.42;51.50
36932;BME280;22847;42.654;23.370;2023-05-07T06:27:07;94940.78;;;20.51;51.53
36932;BME280;22847;42.654;23.370;2023-05-07T06:29:32;94964.50;;;20.72;51.48
36932;BME280;22847;42.654;23.370;2023-05-07T06:32:12;94946.22;;;20.97;50.63
36932;BME280;22847;42.654;23.370;2023-05-07T06:34:38;94810.34;;;20.42;49.78
36932;BME280;22847;42.654;23.370;2023-05-07T06:37:04;94944.88;;;21.34;47.77
36932;BME280;22847;42.654;23.370;2023-05-07T06:39:30;94921.41;;;21.38;47.70
36932;BME280;22847;42.654;23.370;2023-05-07T06:41:56;94929.53;;;21.62;47.07
36932;BME280;22847;42.654;23.370;2023-05-07T06:44:21;94819.97;;;21.35;47.62
36932;BME280;22847;42.654;23.370;2023-05-07T06:46:47;94875.44;;;21.70;47.12
36932;BME280;22847;42.654;23.370;2023-05-07T06:49:13;94930.50;;;22.07;46.78
36932;BME280;22847;42.654;23.370;2023-05-07T06:51:38;94927.69;;;21.83;46.86
36932;BME280;22847;42.654;23.370;2023-05-07T06:54:04;94924.81;;;21.77;47.42
36932;BME280;22847;42.654;23.370;2023-05-07T06:56:30;94931.34;;;21.95;47.71
36932;BME280;22847;42.654;23.370;2023-05-07T06:58:56;94917.84;;;22.03;47.22
36932;BME280;22847;42.654;23.370;2023-05-07T07:01:21;94926.22;;;21.87;46.31
36932;BME280;22847;42.654;23.370;2023-05-07T07:03:47;94939.72;;;21.85;46.68
36932;BME280;22847;42.654;23.370;2023-05-07T07:06:12;94786.53;;;21.15;46.68
36932;BME280;22847;42.654;23.370;2023-05-07T07:08:38;94925.88;;;21.50;46.91
36932;BME280;22847;42.654;23.370;2023-05-07T07:11:04;94924.03;;;21.64;48.43
36932;BME280;22847;42.654;23.370;2023-05-07T07:13:30;94916.03;;;21.70;47.43
36932;BME280;22847;42.654;23.370;2023-05-07T07:15:56;94929.91;;;21.92;47.49
36932;BME280;22847;42.654;23.370;2023-05-07T07:18:21;94784.66;;;21.42;46.63
36932;BME280;22847;42.654;23.370;2023-05-07T07:20:46;94907.69;;;22.44;46.11
36932;BME280;22847;42.654;23.370;2023-05-07T07:23:12;94912.91;;;22.64;46.17
36932;BME280;22847;42.654;23.370;2023-05-07T07:25:37;94913.91;;;22.69;45.74
36932;BME280;22847;42.654;23.370;2023-05-07T07:28:03;94915.72;;;22.82;44.79
36932;BME280;22847;42.654;23.370;2023-05-07T07:30:28;94900.97;;;22.80;44.83
36932;BME280;22847;42.654;23.370;2023-05-07T07:32:54;94933.06;;;23.16;44.63
36932;BME280;22847;42.654;23.370;2023-05-07T07:35:21;94934.50;;;23.43;43.62
36932;BME280;22847;42.654;23.370;2023-05-07T07:37:47;94897.97;;;23.57;42.33
36932;BME280;22847;42.654;23.370;2023-05-07T07:40:14;94888.88;;;23.65;41.74
36932;BME280;22847;42.654;23.370;2023-05-07T07:42:40;94893.97;;;23.91;40.72
36932;BME280;22847;42.654;23.370;2023-05-07T07:45:06;94918.16;;;24.08;40.84
36932;BME280;22847;42.654;23.370;2023-05-07T07:47:31;94916.81;;;23.98;41.02
36932;BME280;22847;42.654;23.370;2023-05-07T07:49:57;94928.72;;;23.96;41.57
36932;BME280;22847;42.654;23.370;2023-05-07T07:52:22;94951.91;;;23.71;42.53
36932;BME280;22847;42.654;23.370;2023-05-07T07:54:48;94844.56;;;23.02;41.47
36932;BME280;22847;42.654;23.370;2023-05-07T07:57:13;94918.53;;;23.50;42.95
36932;BME280;22847;42.654;23.370;2023-05-07T07:59:38;94807.50;;;23.07;43.29
36932;BME280;22847;42.654;23.370;2023-05-07T08:02:05;94879.28;;;23.64;41.96
36932;BME280;22847;42.654;23.370;2023-05-07T08:04:30;94892.84;;;23.98;41.92
36932;BME280;22847;42.654;23.370;2023-05-07T08:06:58;94922.25;;;24.47;42.37
36932;BME280;22847;42.654;23.370;2023-05-07T08:09:23;94881.28;;;24.41;41.16
36932;BME280;22847;42.654;23.370;2023-05-07T08:11:48;94920.53;;;24.52;40.75
36932;BME280;22847;42.654;23.370;2023-05-07T08:14:14;94923.03;;;23.92;41.04
36932;BME280;22847;42.654;23.370;2023-05-07T08:16:41;94909.72;;;23.92;41.93
36932;BME280;22847;42.654;23.370;2023-05-07T08:19:06;94888.63;;;23.91;41.70
36932;BME280;22847;42.654;23.370;2023-05-07T08:21:32;94889.28;;;23.68;40.72
36932;BME280;22847;42.654;23.370;2023-05-07T08:23:57;94909.22;;;24.20;40.81
36932;BME280;22847;42.654;23.370;2023-05-07T08:26:23;94889.41;;;24.16;40.36
36932;BME280;22847;42.654;23.370;2023-05-07T08:28:48;94904.34;;;24.35;39.91
36932;BME280;22847;42.654;23.370;2023-05-07T08:31:13;94915.53;;;24.44;39.21
36932;BME280;22847;42.654;23.370;2023-05-07T08:33:40;94859.06;;;24.17;40.59
36932;BME280;22847;42.654;23.370;2023-05-07T08:36:05;94770.69;;;23.47;41.82
36932;BME280;22847;42.654;23.370;2023-05-07T08:38:31;94855.69;;;24.04;41.83
36932;BME280;22847;42.654;23.370;2023-05-07T08:40:56;94914.41;;;24.33;41.93
36932;BME280;22847;42.654;23.370;2023-05-07T08:43:26;94761.81;;;23.72;40.54
36932;BME280;22847;42.654;23.370;2023-05-07T08:45:53;94898.16;;;24.71;40.52
36932;BME280;22847;42.654;23.370;2023-05-07T08:48:22;94757.31;;;23.54;39.72
36932;BME280;22847;42.654;23.370;2023-05-07T08:50:50;94905.22;;;24.48;40.17
36932;BME280;22847;42.654;23.370;2023-05-07T08:53:16;94786.16;;;23.75;38.86
36932;BME280;22847;42.654;23.370;2023-05-07T08:55:42;94825.59;;;23.85;37.59
36932;BME280;22847;42.654;23.370;2023-05-07T08:58:08;94895.91;;;24.38;36.83
36932;BME280;22847;42.654;23.370;2023-05-07T09:00:35;94911.72;;;24.52;36.74
36932;BME280;22847;42.654;23.370;2023-05-07T09:03:01;94849.31;;;24.41;36.46
36932;BME280;22847;42.654;23.370;2023-05-07T09:05:26;94858.50;;;24.75;35.37
36932;BME280;22847;42.654;23.370;2023-05-07T09:07:52;94880.28;;;24.90;34.62
36932;BME280;22847;42.654;23.370;2023-05-07T09:10:17;94839.09;;;24.38;36.03
36932;BME280;22847;42.654;23.370;2023-05-07T09:12:43;94872.59;;;24.64;35.59
36932;BME280;22847;42.654;23.370;2023-05-07T09:15:09;94842.56;;;24.68;34.71
36932;BME280;22847;42.654;23.370;2023-05-07T09:17:34;94820.00;;;24.82;33.70
36932;BME280;22847;42.654;23.370;2023-05-07T09:20:04;94859.69;;;25.32;32.78
36932;BME280;22847;42.654;23.370;2023-05-07T09:22:33;94861.78;;;25.42;33.18
36932;BME280;22847;42.654;23.370;2023-05-07T09:24:58;94860.03;;;25.47;33.64
36932;BME280;22847;42.654;23.370;2023-05-07T09:27:25;94851.53;;;25.27;33.67
36932;BME280;22847;42.654;23.370;2023-05-07T09:29:50;94738.69;;;24.73;34.21
36932;BME280;22847;42.654;23.370;2023-05-07T09:32:16;94852.03;;;25.47;35.08
36932;BME280;22847;42.654;23.370;2023-05-07T09:34:42;94851.69;;;25.67;35.39
36932;BME280;22847;42.654;23.370;2023-05-07T09:37:07;94843.78;;;25.25;34.58
36932;BME280;22847;42.654;23.370;2023-05-07T09:39:43;94792.22;;;24.90;34.07
36932;BME280;22847;42.654;23.370;2023-05-07T09:42:10;94850.50;;;25.16;34.28
36932;BME280;22847;42.654;23.370;2023-05-07T09:44:37;94824.09;;;24.55;34.25
36932;BME280;22847;42.654;23.370;2023-05-07T09:47:05;94842.22;;;24.65;34.31
36932;BME280;22847;42.654;23.370;2023-05-07T09:49:34;94814.88;;;24.69;34.94
36932;BME280;22847;42.654;23.370;2023-05-07T09:52:01;94676.59;;;24.01;36.46
36932;BME280;22847;42.654;23.370;2023-05-07T09:54:27;94814.22;;;24.85;34.55
36932;BME280;22847;42.654;23.370;2023-05-07T09:56:56;94836.38;;;24.86;34.49
36932;BME280;22847;42.654;23.370;2023-05-07T09:59:22;94836.78;;;25.01;33.33
36932;BME280;22847;42.654;23.370;2023-05-07T10:01:48;94826.22;;;25.06;34.31
36932;BME280;22847;42.654;23.370;2023-05-07T10:04:14;94815.19;;;24.91;33.93
36932;BME280;22847;42.654;23.370;2023-05-07T10:06:40;94653.97;;;23.81;34.29
36932;BME280;22847;42.654;23.370;2023-05-07T10:09:07;94697.31;;;24.18;35.25
36932;BME280;22847;42.654;23.370;2023-05-07T10:11:33;94678.72;;;24.11;33.91
36932;BME280;22847;42.654;23.370;2023-05-07T10:13:59;94818.53;;;24.86;34.34
36932;BME280;22847;42.654;23.370;2023-05-07T10:16:27;94820.06;;;24.94;33.13
36932;BME280;22847;42.654;23.370;2023-05-07T10:18:55;94789.16;;;24.75;33.13
36932;BME280;22847;42.654;23.370;2023-05-07T10:21:23;94655.28;;;23.90;32.48
36932;BME280;22847;42.654;23.370;2023-05-07T10:23:59;94828.91;;;24.95;32.87
36932;BME280;22847;42.654;23.370;2023-05-07T10:26:29;94806.94;;;24.93;33.50
36932;BME280;22847;42.654;23.370;2023-05-07T10:29:01;94795.00;;;24.54;33.16
36932;BME280;22847;42.654;23.370;2023-05-07T10:31:48;94813.75;;;24.47;32.53
36932;BME280;22847;42.654;23.370;2023-05-07T10:34:20;94780.38;;;24.44;33.23
36932;BME280;22847;42.654;23.370;2023-05-07T10:36:47;94653.16;;;23.80;32.70
36932;BME280;22847;42.654;23.370;2023-05-07T10:39:13;94638.59;;;23.94;32.27
36932;BME280;22847;42.654;23.370;2023-05-07T10:41:39;94787.25;;;25.05;32.94
36932;BME280;22847;42.654;23.370;2023-05-07T10:44:04;94787.94;;;25.24;33.26
36932;BME280;22847;42.654;23.370;2023-05-07T10:46:30;94733.75;;;25.00;32.07
36932;BME280;22847;42.654;23.370;2023-05-07T10:51:31;94793.03;;;25.49;33.20
36932;BME280;22847;42.654;23.370;2023-05-07T10:56:38;94644.25;;;24.28;31.28
36932;BME280;22847;42.654;23.370;2023-05-07T11:01:59;94770.53;;;24.98;31.42
36932;BME280;22847;42.654;23.370;2023-05-07T11:04:25;94799.47;;;24.83;31.71
36932;BME280;22847;42.654;23.370;2023-05-07T11:15:03;94774.94;;;25.51;30.74
36932;BME280;22847;42.654;23.370;2023-05-07T11:17:29;94761.13;;;25.54;30.65
36932;BME280;22847;42.654;23.370;2023-05-07T11:19:57;94738.63;;;25.26;30.00
36932;BME280;22847;42.654;23.370;2023-05-07T11:25:06;94753.72;;;25.56;31.52
36932;BME280;22847;42.654;23.370;2023-05-07T11:27:32;94775.41;;;25.48;32.14
36932;BME280;22847;42.654;23.370;2023-05-07T11:29:58;94736.88;;;25.32;32.01
36932;BME280;22847;42.654;23.370;2023-05-07T11:34:52;94726.09;;;25.27;32.50
36932;BME280;22847;42.654;23.370;2023-05-07T11:37:19;94753.78;;;25.49;31.51
36932;BME280;22847;42.654;23.370;2023-05-07T11:39:45;94778.19;;;25.53;30.11
36932;BME280;22847;42.654;23.370;2023-05-07T11:42:28;94749.59;;;25.53;30.27
36932;BME280;22847;42.654;23.370;2023-05-07T11:44:54;94673.41;;;24.99;29.35
36932;BME280;22847;42.654;23.370;2023-05-07T11:47:20;94777.59;;;25.51;29.95
36932;BME280;22847;42.654;23.370;2023-05-07T11:49:49;94776.34;;;25.30;29.97
36932;BME280;22847;42.654;23.370;2023-05-07T11:52:16;94733.50;;;25.13;30.54
36932;BME280;22847;42.654;23.370;2023-05-07T11:54:48;94752.56;;;25.28;29.88
36932;BME280;22847;42.654;23.370;2023-05-07T11:57:14;94710.88;;;24.81;30.34
36932;BME280;22847;42.654;23.370;2023-05-07T11:59:40;94761.59;;;25.04;30.75
36932;BME280;22847;42.654;23.370;2023-05-07T12:02:06;94748.72;;;25.24;31.24
36932;BME280;22847;42.654;23.370;2023-05-07T12:04:32;94718.34;;;25.02;30.29
36932;BME280;22847;42.654;23.370;2023-05-07T12:06:57;94771.09;;;24.88;30.61
36932;BME280;22847;42.654;23.370;2023-05-07T12:09:23;94733.97;;;24.87;30.25
36932;BME280;22847;42.654;23.370;2023-05-07T12:11:48;94693.06;;;24.93;31.15
36932;BME280;22847;42.654;23.370;2023-05-07T12:14:14;94712.88;;;25.20;31.37
36932;BME280;22847;42.654;23.370;2023-05-07T12:16:41;94619.81;;;24.77;30.96
36932;BME280;22847;42.654;23.370;2023-05-07T12:19:08;94717.13;;;25.45;32.37
36932;BME280;22847;42.654;23.370;2023-05-07T12:21:37;94722.13;;;25.41;31.81
36932;BME280;22847;42.654;23.370;2023-05-07T12:24:03;94720.16;;;25.37;30.40
36932;BME280;22847;42.654;23.370;2023-05-07T12:26:29;94600.00;;;24.50;29.82
36932;BME280;22847;42.654;23.370;2023-05-07T12:28:54;94709.88;;;25.17;31.58
36932;BME280;22847;42.654;23.370;2023-05-07T12:31:22;94577.06;;;24.49;31.05
36932;BME280;22847;42.654;23.370;2023-05-07T12:33:47;94704.50;;;25.28;29.98
36932;BME280;22847;42.654;23.370;2023-05-07T12:36:13;94707.63;;;25.37;30.99
36932;BME280;22847;42.654;23.370;2023-05-07T12:38:39;94704.50;;;25.28;30.28
36932;BME280;22847;42.654;23.370;2023-05-07T12:41:07;94690.47;;;25.21;29.87
36932;BME280;22847;42.654;23.370;2023-05-07T12:43:33;94555.50;;;24.51;29.03
36932;BME280;22847;42.654;23.370;2023-05-07T12:46:01;94700.34;;;25.09;29.30
36932;BME280;22847;42.654;23.370;2023-05-07T12:48:28;94589.00;;;24.47;29.75
36932;BME280;22847;42.654;23.370;2023-05-07T12:50:55;94675.88;;;24.89;30.05
36932;BME280;22847;42.654;23.370;2023-05-07T12:53:22;94537.59;;;23.81;30.34
36932;BME280;22847;42.654;23.370;2023-05-07T12:55:50;94517.19;;;23.64;30.02
36932;BME280;22847;42.654;23.370;2023-05-07T12:58:17;94653.56;;;24.60;29.99
36932;BME280;22847;42.654;23.370;2023-05-07T13:00:43;94619.72;;;24.26;29.07
36932;BME280;22847;42.654;23.370;2023-05-07T13:03:09;94636.50;;;24.26;30.83
36932;BME280;22847;42.654;23.370;2023-05-07T13:05:34;94671.50;;;24.41;30.19